Time;durP1;ratioP1;P1;durP2;ratioP2;P2;SDS_P1;SDS_P2;PMS_P1;PMS_P2;Temp;Humidity;BMP_temperature;BMP_pressure;BME280_temperature;BME280_humidity;BME280_pressure;Samples;Min_cycle;Max_cycle;Signal;HPM_P1;HPM_P2
2023/01/14 00:01:30;;;;;;;10.87;7.80;;;;;;;;;;5054609;28;20205;-88
2023/01/14 00:03:56;;;;;;;11.57;8.20;;;;;;;;;;5050716;28;20220;-88
2023/01/14 00:06:27;;;;;;;12.13;8.00;;;;;;;;;;5080287;28;20239;-87
2023/01/14 00:08:57;;;;;;;14.40;7.53;;;;;;;;;;5054206;28;20166;-87
2023/01/14 00:11:45;;;;;;;10.13;7.67;;;;;;;;;;5072091;28;20190;-88
2023/01/14 00:14:09;;;;;;;10.60;7.83;;;;;;;;;;5055273;28;20189;-87
2023/01/14 00:16:35;;;;;;;11.33;7.53;;;;;;;;;;5087608;28;20178;-90
2023/01/14 00:19:02;;;;;;;12.33;7.37;;;;;;;;;;5069832;28;20595;-86
2023/01/14 00:21:28;;;;;;;9.33;6.80;;;;;;;;;;5042389;28;20239;-90
2023/01/14 00:23:54;;;;;;;10.37;7.40;;;;;;;;;;5042218;28;20204;-87
2023/01/14 00:26:21;;;;;;;11.13;6.57;;;;;;;;;;5057150;28;20188;-88
2023/01/14 00:28:48;;;;;;;11.33;7.73;;;;;;;;;;5057588;28;20169;-90
2023/01/14 00:31:15;;;;;;;8.63;6.80;;;;;;;;;;5072871;28;20185;-89
2023/01/14 00:33:42;;;;;;;15.10;7.77;;;;;;;;;;5053834;28;20166;-87
2023/01/14 00:36:10;;;;;;;12.60;7.60;;;;;;;;;;5054887;28;20201;-88
2023/01/14 00:38:36;;;;;;;9.53;6.87;;;;;;;;;;5056940;28;20629;-87
2023/01/14 00:41:02;;;;;;;12.33;6.70;;;;;;;;;;5056754;28;20201;-89
2023/01/14 00:43:28;;;;;;;9.33;6.17;;;;;;;;;;5070540;28;20516;-88
2023/01/14 00:45:54;;;;;;;10.23;6.23;;;;;;;;;;5087272;28;20540;-89
2023/01/14 00:48:20;;;;;;;9.70;6.57;;;;;;;;;;5056754;28;20332;-88
2023/01/14 00:50:46;;;;;;;13.53;7.23;;;;;;;;;;5085212;28;20652;-88
2023/01/14 00:53:12;;;;;;;11.27;6.93;;;;;;;;;;5037548;28;20178;-87
2023/01/14 00:55:38;;;;;;;11.37;6.80;;;;;;;;;;5054429;28;20170;-87
2023/01/14 00:58:04;;;;;;;9.33;6.17;;;;;;;;;;5069066;28;20181;-89
2023/01/14 01:00:30;;;;;;;8.77;6.43;;;;;;;;;;5057000;28;20172;-89
2023/01/14 01:02:57;;;;;;;9.37;6.03;;;;;;;;;;5053292;28;20169;-89
2023/01/14 01:05:23;;;;;;;13.43;7.03;;;;;;;;;;5053011;28;20205;-88
2023/01/14 01:07:49;;;;;;;13.63;6.80;;;;;;;;;;5070354;28;20176;-88
2023/01/14 01:10:15;;;;;;;12.10;7.07;;;;;;;;;;5089498;28;20247;-89
2023/01/14 01:12:41;;;;;;;12.50;6.97;;;;;;;;;;5053128;28;20173;-88
2023/01/14 01:15:08;;;;;;;11.23;6.80;;;;;;;;;;5053189;28;20234;-89
2023/01/14 01:17:34;;;;;;;13.10;6.40;;;;;;;;;;5069779;28;20622;-87
2023/01/14 01:20:00;;;;;;;8.83;5.90;;;;;;;;;;5053567;28;20178;-87
2023/01/14 01:22:26;;;;;;;9.30;5.90;;;;;;;;;;5056087;28;20264;-88
2023/01/14 01:24:52;;;;;;;10.60;5.87;;;;;;;;;;5052952;28;20300;-88
2023/01/14 01:27:18;;;;;;;9.97;6.00;;;;;;;;;;5081064;28;20200;-89
2023/01/14 01:29:43;;;;;;;10.10;5.97;;;;;;;;;;5053022;28;20261;-89
2023/01/14 01:32:09;;;;;;;8.23;5.87;;;;;;;;;;5054646;28;20188;-89
2023/01/14 01:34:35;;;;;;;10.30;5.77;;;;;;;;;;5056690;28;20614;-89
2023/01/14 01:37:36;;;;;;;9.53;5.67;;;;;;;;;;5055755;28;20169;-89
2023/01/14 01:40:02;;;;;;;11.00;6.60;;;;;;;;;;5053132;28;20208;-89
2023/01/14 01:42:33;;;;;;;9.10;6.10;;;;;;;;;;5048347;28;20995;-89
2023/01/14 01:45:18;;;;;;;10.63;5.90;;;;;;;;;;5055995;28;20209;-88
2023/01/14 01:47:44;;;;;;;9.90;6.27;;;;;;;;;;5058420;28;20240;-88
2023/01/14 01:50:10;;;;;;;8.73;6.33;;;;;;;;;;5056586;28;21175;-90
2023/01/14 01:52:37;;;;;;;8.77;6.10;;;;;;;;;;5089750;28;20218;-90
2023/01/14 01:55:07;;;;;;;8.93;5.87;;;;;;;;;;5056315;28;20181;-89
2023/01/14 01:57:33;;;;;;;10.63;6.60;;;;;;;;;;5082616;28;20249;-90
2023/01/14 02:00:01;;;;;;;8.70;5.80;;;;;;;;;;5090062;28;20189;-87
2023/01/14 02:02:28;;;;;;;12.10;6.67;;;;;;;;;;5056205;28;20173;-89
2023/01/14 02:04:54;;;;;;;12.47;6.40;;;;;;;;;;5055929;28;20224;-90
2023/01/14 02:07:25;;;;;;;8.53;5.90;;;;;;;;;;5056229;28;20185;-89
2023/01/14 02:09:53;;;;;;;10.03;6.87;;;;;;;;;;5052303;28;20178;-89
2023/01/14 02:12:38;;;;;;;10.37;6.70;;;;;;;;;;5079959;28;20192;-89
2023/01/14 02:15:10;;;;;;;9.57;6.20;;;;;;;;;;5052301;28;20536;-88
2023/01/14 02:18:00;;;;;;;9.93;6.63;;;;;;;;;;5040629;28;20580;-87
2023/01/14 02:20:29;;;;;;;9.40;6.83;;;;;;;;;;5055606;28;20201;-88
2023/01/14 02:23:13;;;;;;;9.30;6.50;;;;;;;;;;5055526;28;20188;-90
2023/01/14 02:25:46;;;;;;;8.93;6.33;;;;;;;;;;5069519;28;20216;-87
2023/01/14 02:28:35;;;;;;;10.00;6.73;;;;;;;;;;5068888;28;20173;-88
2023/01/14 02:31:01;;;;;;;9.30;6.83;;;;;;;;;;5018811;28;20675;-89
2023/01/14 02:33:29;;;;;;;12.47;6.83;;;;;;;;;;5041856;28;20219;-87
2023/01/14 02:36:03;;;;;;;7.97;5.90;;;;;;;;;;5035003;28;20658;-87
2023/01/14 02:38:44;;;;;;;10.53;7.17;;;;;;;;;;5049970;28;20272;-89
2023/01/14 02:41:10;;;;;;;10.53;6.40;;;;;;;;;;5016339;28;20265;-90
2023/01/14 02:44:07;;;;;;;9.63;6.50;;;;;;;;;;5034463;28;20201;-88
2023/01/14 02:46:52;;;;;;;10.67;6.67;;;;;;;;;;5034619;28;20193;-87
2023/01/14 02:49:20;;;;;;;10.37;6.30;;;;;;;;;;5033665;28;20190;-90
2023/01/14 02:51:47;;;;;;;10.67;6.77;;;;;;;;;;5016065;28;20182;-88
2023/01/14 02:54:16;;;;;;;10.70;7.33;;;;;;;;;;5024317;28;21099;-88
2023/01/14 02:56:42;;;;;;;10.77;7.13;;;;;;;;;;5030897;28;20183;-89
2023/01/14 02:59:34;;;;;;;10.47;7.37;;;;;;;;;;5015245;28;20278;-89
2023/01/14 03:02:06;;;;;;;10.57;7.47;;;;;;;;;;5015095;28;20273;-90
2023/01/14 03:04:32;;;;;;;11.80;7.07;;;;;;;;;;5031233;28;20241;-87
2023/01/14 03:07:16;;;;;;;11.87;7.53;;;;;;;;;;5047933;28;20190;-88
2023/01/14 03:10:09;;;;;;;9.60;7.20;;;;;;;;;;5054950;28;20221;-89
2023/01/14 03:12:41;;;;;;;10.00;7.17;;;;;;;;;;5052942;28;20283;-88
2023/01/14 03:15:30;;;;;;;11.10;7.60;;;;;;;;;;5051571;28;20185;-88
2023/01/14 03:18:02;;;;;;;11.83;7.10;;;;;;;;;;5074810;28;20196;-88
2023/01/14 03:20:31;;;;;;;9.27;6.80;;;;;;;;;;5059365;28;20227;-89
2023/01/14 03:22:58;;;;;;;7.83;5.90;;;;;;;;;;5059763;28;20184;-89
2023/01/14 03:25:26;;;;;;;11.83;6.57;;;;;;;;;;5059024;28;20274;-89
2023/01/14 03:27:53;;;;;;;11.30;7.20;;;;;;;;;;5059537;28;20223;-89
2023/01/14 03:30:26;;;;;;;9.03;6.40;;;;;;;;;;5058858;28;20180;-89
2023/01/14 03:32:55;;;;;;;8.83;6.53;;;;;;;;;;5058522;28;20192;-88
2023/01/14 03:35:31;;;;;;;8.53;6.33;;;;;;;;;;5058408;28;20184;-88
2023/01/14 03:38:17;;;;;;;11.87;6.63;;;;;;;;;;5059289;28;20169;-88
2023/01/14 03:40:44;;;;;;;11.10;6.53;;;;;;;;;;5055364;28;20287;-88
2023/01/14 03:43:14;;;;;;;8.57;6.70;;;;;;;;;;5055786;28;20186;-88
2023/01/14 03:45:40;;;;;;;9.57;6.47;;;;;;;;;;5058567;28;20251;-88
2023/01/14 03:48:07;;;;;;;9.67;6.73;;;;;;;;;;5058692;28;20249;-88
2023/01/14 03:50:36;;;;;;;8.43;5.73;;;;;;;;;;5058616;28;20223;-88
2023/01/14 03:53:20;;;;;;;12.37;7.10;;;;;;;;;;5058829;28;20553;-88
2023/01/14 03:56:00;;;;;;;10.57;5.97;;;;;;;;;;5055293;28;20239;-89
2023/01/14 03:58:34;;;;;;;7.97;5.53;;;;;;;;;;5040972;28;20186;-88
2023/01/14 04:01:23;;;;;;;11.57;6.20;;;;;;;;;;5054124;28;20180;-88
2023/01/14 04:03:49;;;;;;;10.27;6.37;;;;;;;;;;5092022;28;20189;-88
2023/01/14 04:06:15;;;;;;;9.53;5.23;;;;;;;;;;5058412;28;20169;-88
2023/01/14 04:08:41;;;;;;;9.33;5.80;;;;;;;;;;5058569;28;20183;-89
2023/01/14 04:11:08;;;;;;;11.47;5.63;;;;;;;;;;5076364;28;20208;-88
2023/01/14 04:16:19;;;;;;;9.73;6.37;;;;;;;;;;5075905;28;20206;-88
2023/01/14 04:18:45;;;;;;;8.23;5.37;;;;;;;;;;5054127;28;20205;-88
2023/01/14 04:21:11;;;;;;;10.57;5.37;;;;;;;;;;5058089;28;20177;-88
2023/01/14 04:23:37;;;;;;;9.07;5.50;;;;;;;;;;5054105;28;20220;-89
2023/01/14 04:26:03;;;;;;;8.57;5.23;;;;;;;;;;5037731;28;20212;-88
2023/01/14 04:28:29;;;;;;;10.90;5.23;;;;;;;;;;5054273;28;20177;-88
2023/01/14 04:30:55;;;;;;;8.80;5.20;;;;;;;;;;5056531;28;20206;-88
2023/01/14 04:33:21;;;;;;;10.10;5.30;;;;;;;;;;5057932;28;20212;-88
2023/01/14 04:35:48;;;;;;;8.20;5.30;;;;;;;;;;5091137;28;20184;-88
2023/01/14 04:38:15;;;;;;;7.93;4.87;;;;;;;;;;5057400;28;20242;-88
2023/01/14 04:40:41;;;;;;;9.23;5.63;;;;;;;;;;5088850;28;20181;-88
2023/01/14 04:43:08;;;;;;;8.50;4.43;;;;;;;;;;5057471;28;20231;-88
2023/01/14 04:45:35;;;;;;;8.90;4.93;;;;;;;;;;5057497;28;21409;-88
2023/01/14 04:48:01;;;;;;;7.40;4.57;;;;;;;;;;5089653;28;20274;-88
2023/01/14 04:50:37;;;;;;;7.37;4.53;;;;;;;;;;5055164;28;20181;-88
2023/01/14 04:53:07;;;;;;;7.47;4.33;;;;;;;;;;5074448;28;20188;-88
2023/01/14 04:55:37;;;;;;;6.93;4.27;;;;;;;;;;5055313;28;20204;-88
2023/01/14 04:58:04;;;;;;;10.63;4.90;;;;;;;;;;5055902;28;20173;-88
2023/01/14 05:00:30;;;;;;;11.27;5.03;;;;;;;;;;5073255;28;20184;-88
2023/01/14 05:02:56;;;;;;;15.37;4.40;;;;;;;;;;5053967;28;20181;-88
2023/01/14 05:05:22;;;;;;;6.87;4.50;;;;;;;;;;5054890;28;20311;-88
2023/01/14 05:07:48;;;;;;;6.37;4.20;;;;;;;;;;5053033;28;20571;-88
2023/01/14 05:10:15;;;;;;;7.37;4.60;;;;;;;;;;5063407;28;20177;-88
2023/01/14 05:12:55;;;;;;;8.17;4.10;;;;;;;;;;5065857;28;20180;-88
2023/01/14 05:15:23;;;;;;;7.63;4.50;;;;;;;;;;5057062;28;20188;-89
2023/01/14 05:17:49;;;;;;;8.93;4.97;;;;;;;;;;5053214;28;20264;-89
2023/01/14 05:20:15;;;;;;;9.30;4.43;;;;;;;;;;5037209;28;20241;-89
2023/01/14 05:22:41;;;;;;;9.87;4.90;;;;;;;;;;5052049;28;20170;-89
2023/01/14 05:25:07;;;;;;;8.80;4.37;;;;;;;;;;5085282;28;20223;-89
2023/01/14 05:27:34;;;;;;;7.57;4.13;;;;;;;;;;5056823;28;20183;-87
2023/01/14 05:30:02;;;;;;;8.03;4.37;;;;;;;;;;5056730;28;20169;-89
2023/01/14 05:32:28;;;;;;;6.67;4.17;;;;;;;;;;5056060;28;20637;-90
2023/01/14 05:34:54;;;;;;;7.80;4.27;;;;;;;;;;5090233;28;20178;-86
2023/01/14 05:37:20;;;;;;;6.60;4.00;;;;;;;;;;5089213;28;20176;-87
2023/01/14 05:39:46;;;;;;;5.73;3.90;;;;;;;;;;5056704;28;20268;-90
2023/01/14 05:47:42;;;;;;;10.87;4.13;;;;;;;;;;5073860;28;20277;-88
2023/01/14 05:50:10;;;;;;;5.63;4.20;;;;;;;;;;5074364;28;20173;-87
2023/01/14 05:52:36;;;;;;;8.10;4.03;;;;;;;;;;5057131;28;20193;-87
2023/01/14 05:55:02;;;;;;;6.50;3.27;;;;;;;;;;5056352;28;20177;-88
2023/01/14 05:57:28;;;;;;;8.13;4.00;;;;;;;;;;5052824;28;20180;-90
2023/01/14 05:59:54;;;;;;;7.73;3.83;;;;;;;;;;5057289;28;20181;-89
2023/01/14 06:07:57;;;;;;;6.57;3.63;;;;;;;;;;5051811;28;20172;-88
2023/01/14 06:10:26;;;;;;;9.23;4.07;;;;;;;;;;5031716;28;20589;-89
2023/01/14 06:12:58;;;;;;;7.63;4.30;;;;;;;;;;5034953;28;20228;-88
2023/01/14 06:15:25;;;;;;;6.70;4.20;;;;;;;;;;5034792;28;20209;-89
2023/01/14 06:18:08;;;;;;;6.47;4.20;;;;;;;;;;5034853;28;20178;-90
2023/01/14 06:20:34;;;;;;;6.90;3.87;;;;;;;;;;5032844;28;20214;-90
2023/01/14 06:23:00;;;;;;;7.37;3.43;;;;;;;;;;5051751;28;20264;-88
2023/01/14 06:25:28;;;;;;;9.80;4.00;;;;;;;;;;5026613;28;20305;-88
2023/01/14 06:27:54;;;;;;;8.30;3.97;;;;;;;;;;5031433;28;20228;-90
2023/01/14 06:30:20;;;;;;;6.70;4.10;;;;;;;;;;5023566;28;20174;-90
2023/01/14 06:32:46;;;;;;;9.00;4.10;;;;;;;;;;5034827;28;20212;-88
2023/01/14 06:35:12;;;;;;;9.10;3.97;;;;;;;;;;5034909;28;20186;-89
2023/01/14 06:37:38;;;;;;;6.83;3.80;;;;;;;;;;5015827;28;20610;-88
2023/01/14 06:40:04;;;;;;;7.60;4.50;;;;;;;;;;5029002;28;20222;-91
2023/01/14 06:42:30;;;;;;;6.50;4.27;;;;;;;;;;5035299;28;20208;-89
2023/01/14 06:44:56;;;;;;;8.37;4.50;;;;;;;;;;5039215;28;20673;-88
2023/01/14 06:47:22;;;;;;;9.30;4.23;;;;;;;;;;5055432;28;20263;-88
2023/01/14 06:49:48;;;;;;;8.57;4.03;;;;;;;;;;5055455;28;20199;-89
2023/01/14 06:52:14;;;;;;;8.07;4.30;;;;;;;;;;5055025;28;20170;-90
2023/01/14 06:54:40;;;;;;;7.70;3.93;;;;;;;;;;5055943;28;20188;-88
2023/01/14 06:57:06;;;;;;;8.47;4.00;;;;;;;;;;5058871;28;20634;-88
2023/01/14 06:59:32;;;;;;;8.83;3.90;;;;;;;;;;5039579;28;20169;-89
2023/01/14 07:01:58;;;;;;;6.53;3.70;;;;;;;;;;5039513;28;20174;-87
2023/01/14 07:04:24;;;;;;;9.63;4.00;;;;;;;;;;5055127;28;20239;-85
2023/01/14 07:06:53;;;;;;;7.70;3.90;;;;;;;;;;5055238;28;20232;-85
2023/01/14 07:09:19;;;;;;;6.37;4.00;;;;;;;;;;5045717;28;20196;-85
2023/01/14 07:11:45;;;;;;;9.00;4.23;;;;;;;;;;5057461;28;20221;-83
2023/01/14 07:14:11;;;;;;;8.03;4.40;;;;;;;;;;5054942;28;20178;-84
2023/01/14 07:16:37;;;;;;;8.40;4.27;;;;;;;;;;5085525;28;20179;-84
2023/01/14 07:19:03;;;;;;;8.63;4.30;;;;;;;;;;5058135;28;20177;-84
2023/01/14 07:21:29;;;;;;;6.43;4.43;;;;;;;;;;5057841;28;20233;-83
2023/01/14 07:23:55;;;;;;;8.83;3.97;;;;;;;;;;5057043;28;20528;-84
2023/01/14 07:26:21;;;;;;;8.30;4.17;;;;;;;;;;5054759;28;20170;-84
2023/01/14 07:28:47;;;;;;;8.77;4.13;;;;;;;;;;5074108;28;20191;-84
2023/01/14 07:31:13;;;;;;;8.77;4.13;;;;;;;;;;5058196;28;20203;-84
2023/01/14 07:33:38;;;;;;;5.73;3.90;;;;;;;;;;5064536;28;20486;-84
2023/01/14 07:36:05;;;;;;;6.13;4.00;;;;;;;;;;5075622;28;20185;-84
2023/01/14 07:38:31;;;;;;;8.20;3.80;;;;;;;;;;5057524;28;20177;-85
2023/01/14 07:40:57;;;;;;;9.03;4.83;;;;;;;;;;5058208;28;20199;-84
2023/01/14 07:43:23;;;;;;;6.13;4.17;;;;;;;;;;5057967;28;20185;-84
2023/01/14 07:45:49;;;;;;;5.60;3.53;;;;;;;;;;5057383;28;20291;-84
2023/01/14 07:48:15;;;;;;;6.37;3.87;;;;;;;;;;5054045;28;20228;-85
2023/01/14 07:50:41;;;;;;;9.03;4.37;;;;;;;;;;5087925;28;20173;-84
2023/01/14 07:53:07;;;;;;;7.77;4.03;;;;;;;;;;5052895;28;20540;-84
2023/01/14 07:55:35;;;;;;;7.10;4.50;;;;;;;;;;5044574;28;20186;-83
2023/01/14 07:58:01;;;;;;;6.47;3.90;;;;;;;;;;5083871;28;20181;-84
2023/01/14 08:00:27;;;;;;;7.60;4.00;;;;;;;;;;5057825;28;20311;-84
2023/01/14 08:02:53;;;;;;;8.00;4.37;;;;;;;;;;5057591;28;20172;-84
2023/01/14 08:05:19;;;;;;;6.03;4.13;;;;;;;;;;5057045;28;20197;-84
2023/01/14 08:07:45;;;;;;;8.30;4.33;;;;;;;;;;5057243;28;20595;-84
2023/01/14 08:10:12;;;;;;;6.80;4.27;;;;;;;;;;5060525;28;20242;-83
2023/01/14 08:12:38;;;;;;;11.13;4.77;;;;;;;;;;5057522;28;20176;-84
2023/01/14 08:15:05;;;;;;;8.70;4.67;;;;;;;;;;5057196;28;20189;-84
2023/01/14 08:17:31;;;;;;;7.67;4.00;;;;;;;;;;5057752;28;20174;-85
2023/01/14 08:19:57;;;;;;;7.57;4.50;;;;;;;;;;5057698;28;20275;-84
2023/01/14 08:22:23;;;;;;;7.50;4.37;;;;;;;;;;5057153;28;20639;-84
2023/01/14 08:24:50;;;;;;;7.10;4.40;;;;;;;;;;5057466;28;20261;-84
2023/01/14 08:27:16;;;;;;;8.27;4.33;;;;;;;;;;5057213;28;20181;-83
2023/01/14 08:29:42;;;;;;;11.50;4.70;;;;;;;;;;5055666;28;20549;-83
2023/01/14 08:32:08;;;;;;;6.00;4.20;;;;;;;;;;5037072;28;20178;-85
2023/01/14 08:34:34;;;;;;;9.83;4.20;;;;;;;;;;5054261;28;20173;-82
2023/01/14 08:37:00;;;;;;;7.83;4.40;;;;;;;;;;5056731;28;20266;-84
2023/01/14 08:39:26;;;;;;;8.07;4.43;;;;;;;;;;5056474;28;20217;-85
2023/01/14 08:41:52;;;;;;;9.40;4.13;;;;;;;;;;5056850;28;20192;-84
2023/01/14 08:44:18;;;;;;;8.93;3.90;;;;;;;;;;5074456;28;20707;-84
2023/01/14 08:46:44;;;;;;;7.00;4.00;;;;;;;;;;5056603;28;20183;-84
2023/01/14 08:49:10;;;;;;;7.90;4.17;;;;;;;;;;5059988;28;20173;-82
2023/01/14 08:51:36;;;;;;;7.30;4.37;;;;;;;;;;5056882;28;20275;-83
2023/01/14 08:54:02;;;;;;;9.33;4.27;;;;;;;;;;5058017;28;20223;-83
2023/01/14 08:56:28;;;;;;;7.53;3.90;;;;;;;;;;5057288;28;20192;-84
2023/01/14 08:58:55;;;;;;;9.33;4.10;;;;;;;;;;5069757;28;20251;-84
2023/01/14 09:01:21;;;;;;;9.80;4.00;;;;;;;;;;5056476;28;20161;-83
2023/01/14 09:03:47;;;;;;;9.90;4.40;;;;;;;;;;5055896;28;20191;-83
2023/01/14 09:06:14;;;;;;;8.83;4.13;;;;;;;;;;5052918;28;20186;-83
2023/01/14 09:17:06;;;;;;;10.13;4.30;;;;;;;;;;5073116;28;20187;-83
2023/01/14 09:19:40;;;;;;;7.33;4.13;;;;;;;;;;5053805;28;20211;-81
2023/01/14 09:22:06;;;;;;;8.80;3.80;;;;;;;;;;5055774;28;20209;-83
2023/01/14 09:24:32;;;;;;;7.23;4.03;;;;;;;;;;5055359;28;20243;-81
2023/01/14 09:26:58;;;;;;;7.53;3.70;;;;;;;;;;5054747;28;20204;-84
2023/01/14 09:29:24;;;;;;;8.33;4.33;;;;;;;;;;5055451;28;20184;-84
2023/01/14 09:31:50;;;;;;;7.23;3.90;;;;;;;;;;5071431;28;20668;-83
2023/01/14 09:34:16;;;;;;;10.73;4.10;;;;;;;;;;5053907;28;20192;-82
2023/01/14 09:36:42;;;;;;;9.00;4.77;;;;;;;;;;5051943;28;20193;-84
2023/01/14 09:39:08;;;;;;;11.13;4.40;;;;;;;;;;5053042;28;20193;-84
2023/01/14 09:41:35;;;;;;;11.90;4.13;;;;;;;;;;5055102;28;20172;-84
2023/01/14 09:44:03;;;;;;;8.20;4.03;;;;;;;;;;5087857;28;20638;-83
2023/01/14 09:46:29;;;;;;;7.60;4.03;;;;;;;;;;5054406;28;20279;-83
2023/01/14 09:48:56;;;;;;;9.27;4.33;;;;;;;;;;5053190;28;20237;-83
2023/01/14 09:51:34;;;;;;;10.43;4.67;;;;;;;;;;5055234;28;20207;-84
2023/01/14 09:54:19;;;;;;;9.07;4.83;;;;;;;;;;5052699;28;20192;-84
2023/01/14 09:56:52;;;;;;;8.90;4.37;;;;;;;;;;5051840;28;20180;-84
2023/01/14 09:59:38;;;;;;;7.93;4.40;;;;;;;;;;5053329;28;20242;-84
2023/01/14 10:02:04;;;;;;;6.80;4.23;;;;;;;;;;5050088;28;20188;-84
2023/01/14 10:04:30;;;;;;;6.57;4.40;;;;;;;;;;5054480;28;20200;-83
2023/01/14 10:06:57;;;;;;;6.93;3.77;;;;;;;;;;5050268;28;20199;-87
2023/01/14 10:09:34;;;;;;;13.67;4.20;;;;;;;;;;5068254;28;20185;-84
2023/01/14 10:12:01;;;;;;;7.33;4.10;;;;;;;;;;5052864;28;20197;-83
2023/01/14 10:14:35;;;;;;;7.67;4.33;;;;;;;;;;5054480;28;20177;-87
2023/01/14 10:17:07;;;;;;;8.13;4.30;;;;;;;;;;5054762;28;20192;-83
2023/01/14 10:19:32;;;;;;;9.63;4.73;;;;;;;;;;5054497;28;20704;-85
2023/01/14 10:22:03;;;;;;;11.90;4.80;;;;;;;;;;5045580;28;20226;-85
2023/01/14 10:24:29;;;;;;;10.20;4.90;;;;;;;;;;5044804;28;20303;-85
2023/01/14 10:26:56;;;;;;;10.97;4.50;;;;;;;;;;5065311;28;20229;-85
2023/01/14 10:29:23;;;;;;;9.20;3.83;;;;;;;;;;5072029;28;20176;-84
2023/01/14 10:31:58;;;;;;;7.37;4.17;;;;;;;;;;5059629;28;20176;-88
2023/01/14 10:34:29;;;;;;;10.50;4.10;;;;;;;;;;5069298;28;20230;-86
2023/01/14 10:36:56;;;;;;;7.13;4.10;;;;;;;;;;5064356;28;20251;-84
2023/01/14 10:39:24;;;;;;;8.13;4.20;;;;;;;;;;5060161;28;20185;-85
2023/01/14 10:41:50;;;;;;;7.70;4.20;;;;;;;;;;5076422;28;20267;-88
2023/01/14 10:44:20;;;;;;;6.97;4.00;;;;;;;;;;5068344;28;20219;-83
2023/01/14 10:46:47;;;;;;;8.47;4.67;;;;;;;;;;5060507;28;20195;-83
2023/01/14 10:49:23;;;;;;;8.53;4.67;;;;;;;;;;5064347;28;20169;-83
2023/01/14 10:51:52;;;;;;;7.07;4.47;;;;;;;;;;5058357;28;20184;-82
2023/01/14 10:54:22;;;;;;;8.57;4.20;;;;;;;;;;5059083;28;20173;-85
2023/01/14 10:57:10;;;;;;;9.67;4.30;;;;;;;;;;5055368;28;20220;-88
2023/01/14 10:59:42;;;;;;;8.63;3.80;;;;;;;;;;5072533;28;20190;-84
2023/01/14 11:02:19;;;;;;;9.73;4.40;;;;;;;;;;5066266;28;20527;-83
2023/01/14 11:04:45;;;;;;;7.23;3.80;;;;;;;;;;5063037;28;20609;-84
2023/01/14 11:07:15;;;;;;;9.27;4.37;;;;;;;;;;5069424;28;20294;-87
2023/01/14 11:09:41;;;;;;;8.20;3.97;;;;;;;;;;5059461;28;20215;-85
2023/01/14 11:12:07;;;;;;;8.43;4.30;;;;;;;;;;5056381;28;20178;-87
2023/01/14 11:14:37;;;;;;;8.03;3.90;;;;;;;;;;5058363;28;20176;-85
2023/01/14 11:17:39;;;;;;;9.63;4.40;;;;;;;;;;5057212;28;20642;-79
2023/01/14 11:20:21;;;;;;;9.80;4.50;;;;;;;;;;5002498;28;20228;-80
2023/01/14 11:22:55;;;;;;;7.17;3.33;;;;;;;;;;5000699;28;20287;-80
2023/01/14 11:25:24;;;;;;;7.03;4.50;;;;;;;;;;4978151;28;20703;-79
2023/01/14 11:27:51;;;;;;;9.73;4.23;;;;;;;;;;5013392;28;20283;-81
2023/01/14 11:30:18;;;;;;;11.07;5.07;;;;;;;;;;5016888;28;20193;-84
2023/01/14 11:32:49;;;;;;;9.07;4.50;;;;;;;;;;5019313;28;20183;-81
2023/01/14 11:35:23;;;;;;;9.43;4.77;;;;;;;;;;4996431;28;20199;-80
2023/01/14 11:37:49;;;;;;;8.23;4.40;;;;;;;;;;5016456;28;20182;-82
2023/01/14 11:43:15;;;;;;;8.67;4.50;;;;;;;;;;4981616;28;20181;-82
2023/01/14 11:45:42;;;;;;;7.67;3.87;;;;;;;;;;4973156;28;20224;-86
2023/01/14 11:48:23;;;;;;;9.03;4.40;;;;;;;;;;4956509;28;20232;-80
2023/01/14 11:50:56;;;;;;;7.47;4.30;;;;;;;;;;4983245;28;20516;-81
2023/01/14 11:53:26;;;;;;;9.43;4.40;;;;;;;;;;4978528;28;20191;-80
2023/01/14 11:55:55;;;;;;;9.67;4.77;;;;;;;;;;5013502;28;20282;-80
2023/01/14 11:58:21;;;;;;;10.87;5.00;;;;;;;;;;5024278;28;20320;-82
2023/01/14 12:00:49;;;;;;;7.73;4.60;;;;;;;;;;5003098;28;20199;-79
2023/01/14 12:03:36;;;;;;;9.63;4.83;;;;;;;;;;5019150;28;20193;-78
2023/01/14 12:06:26;;;;;;;8.33;4.67;;;;;;;;;;5020106;28;20195;-81
2023/01/14 12:08:57;;;;;;;9.57;4.70;;;;;;;;;;5008580;28;20233;-82
2023/01/14 12:11:28;;;;;;;9.87;4.77;;;;;;;;;;5012797;28;20597;-78
2023/01/14 12:16:56;;;;;;;9.93;4.13;;;;;;;;;;5008528;28;20633;-78
2023/01/14 12:19:26;;;;;;;11.10;4.30;;;;;;;;;;5003444;28;20559;-78
2023/01/14 12:21:55;;;;;;;8.33;4.30;;;;;;;;;;5056331;28;20184;-78
2023/01/14 12:24:25;;;;;;;10.20;4.30;;;;;;;;;;5073064;28;20288;-79
2023/01/14 12:26:53;;;;;;;10.87;4.97;;;;;;;;;;5053013;28;20182;-79
2023/01/14 12:29:22;;;;;;;7.27;4.47;;;;;;;;;;5062327;28;20176;-79
2023/01/14 12:32:01;;;;;;;9.53;5.03;;;;;;;;;;5067269;28;20188;-80
2023/01/14 12:34:27;;;;;;;8.00;4.50;;;;;;;;;;5049852;28;20645;-79
2023/01/14 12:37:00;;;;;;;8.70;4.77;;;;;;;;;;5070161;28;20181;-79
2023/01/14 12:47:54;;;;;;;7.30;4.63;;;;;;;;;;5079964;28;20251;-80
2023/01/14 12:50:20;;;;;;;9.90;5.10;;;;;;;;;;5062706;28;20173;-79
2023/01/14 12:52:49;;;;;;;8.03;5.13;;;;;;;;;;5057797;28;20538;-79
2023/01/14 12:55:25;;;;;;;13.40;5.40;;;;;;;;;;5057715;28;20316;-84
2023/01/14 12:57:53;;;;;;;8.17;4.57;;;;;;;;;;5054881;28;20184;-83
2023/01/14 13:00:26;;;;;;;8.63;4.67;;;;;;;;;;5052655;28;20186;-84
2023/01/14 13:02:54;;;;;;;7.47;4.83;;;;;;;;;;5053986;28;20191;-84
2023/01/14 13:05:46;;;;;;;11.30;5.60;;;;;;;;;;5049491;28;20209;-81
2023/01/14 13:08:29;;;;;;;12.37;5.70;;;;;;;;;;5046573;28;20203;-80
2023/01/14 13:11:03;;;;;;;9.53;5.13;;;;;;;;;;5053792;28;20184;-78
2023/01/14 13:13:31;;;;;;;12.87;5.67;;;;;;;;;;5048482;28;20188;-81
2023/01/14 13:15:58;;;;;;;8.50;5.47;;;;;;;;;;5067889;28;20221;-81
2023/01/14 13:18:36;;;;;;;10.27;5.57;;;;;;;;;;5062670;28;20220;-79
2023/01/14 13:21:04;;;;;;;8.33;4.60;;;;;;;;;;5076978;28;20180;-80
2023/01/14 13:23:45;;;;;;;8.20;4.53;;;;;;;;;;5078568;28;20223;-79
2023/01/14 13:26:21;;;;;;;10.20;5.00;;;;;;;;;;5056206;28;20276;-84
2023/01/14 13:29:17;;;;;;;9.17;4.80;;;;;;;;;;5052830;28;20184;-81
2023/01/14 13:31:45;;;;;;;9.70;5.27;;;;;;;;;;5053954;28;20197;-80
2023/01/14 13:34:24;;;;;;;9.03;5.23;;;;;;;;;;5051934;28;20209;-81
2023/01/14 13:37:03;;;;;;;6.37;4.20;;;;;;;;;;5072147;28;20173;-80
2023/01/14 13:39:30;;;;;;;9.87;4.50;;;;;;;;;;5082243;28;20186;-86
2023/01/14 13:41:58;;;;;;;8.00;4.50;;;;;;;;;;5053472;28;20177;-82
2023/01/14 13:44:26;;;;;;;13.07;4.93;;;;;;;;;;5071019;28;20208;-81
2023/01/14 13:47:02;;;;;;;8.13;4.40;;;;;;;;;;5052988;28;20550;-84
2023/01/14 13:49:40;;;;;;;7.07;4.23;;;;;;;;;;5054606;28;20725;-79
2023/01/14 13:52:12;;;;;;;11.83;5.00;;;;;;;;;;5068136;28;20185;-82
2023/01/14 13:54:38;;;;;;;6.03;4.50;;;;;;;;;;5082734;28;20241;-79
2023/01/14 13:57:10;;;;;;;8.50;5.10;;;;;;;;;;5082370;28;20532;-80
2023/01/14 13:59:37;;;;;;;9.33;4.67;;;;;;;;;;5040714;28;20261;-80
2023/01/14 14:02:03;;;;;;;9.53;4.80;;;;;;;;;;5074835;28;20185;-79
2023/01/14 14:04:48;;;;;;;9.13;4.77;;;;;;;;;;5051343;28;20212;-79
2023/01/14 14:07:32;;;;;;;6.93;4.50;;;;;;;;;;5066402;28;20185;-80
2023/01/14 14:10:00;;;;;;;10.40;4.63;;;;;;;;;;5045460;28;20191;-79
2023/01/14 14:15:32;;;;;;;10.23;4.80;;;;;;;;;;5070000;28;20183;-80
2023/01/14 14:17:59;;;;;;;9.33;4.97;;;;;;;;;;5053146;28;20629;-79
2023/01/14 14:20:30;;;;;;;8.93;4.57;;;;;;;;;;5048681;28;20623;-80
2023/01/14 14:23:00;;;;;;;10.70;5.10;;;;;;;;;;5051083;28;20275;-82
2023/01/14 14:25:47;;;;;;;9.73;5.13;;;;;;;;;;5082353;28;20213;-79
2023/01/14 14:28:18;;;;;;;10.83;5.17;;;;;;;;;;5067233;28;20284;-79
2023/01/14 14:30:47;;;;;;;9.50;5.30;;;;;;;;;;5067029;28;20213;-80
2023/01/14 14:33:51;;;;;;;11.27;5.40;;;;;;;;;;5051003;28;20637;-80
2023/01/14 14:36:18;;;;;;;11.03;5.33;;;;;;;;;;5027436;28;20349;-79
2023/01/14 14:38:47;;;;;;;9.27;5.37;;;;;;;;;;5027186;28;20206;-79
2023/01/14 14:41:16;;;;;;;10.73;5.90;;;;;;;;;;5001756;28;20202;-79
2023/01/14 14:43:43;;;;;;;9.50;5.50;;;;;;;;;;5005807;28;20288;-82
2023/01/14 14:46:10;;;;;;;8.83;5.17;;;;;;;;;;5013982;28;20584;-81
2023/01/14 14:48:40;;;;;;;9.47;5.37;;;;;;;;;;4995860;28;20212;-84
2023/01/14 14:51:23;;;;;;;11.07;5.33;;;;;;;;;;4993550;28;20176;-80
2023/01/14 14:53:50;;;;;;;10.93;5.80;;;;;;;;;;5017419;28;20194;-83
2023/01/14 14:56:18;;;;;;;9.07;5.30;;;;;;;;;;5009334;28;20197;-84
2023/01/14 14:58:47;;;;;;;9.37;5.67;;;;;;;;;;5012703;28;20581;-82
2023/01/14 15:01:14;;;;;;;10.50;6.30;;;;;;;;;;5026404;28;20657;-81
2023/01/14 15:03:40;;;;;;;12.57;6.53;;;;;;;;;;5010897;28;20563;-81
2023/01/14 15:06:11;;;;;;;11.07;7.00;;;;;;;;;;5005850;28;20667;-81
2023/01/14 15:08:39;;;;;;;12.63;8.07;;;;;;;;;;5023770;28;20205;-81
2023/01/14 15:11:08;;;;;;;13.73;8.33;;;;;;;;;;5034488;28;20209;-79
2023/01/14 15:13:39;;;;;;;15.03;7.93;;;;;;;;;;5045515;28;20190;-79
2023/01/14 15:16:08;;;;;;;14.03;8.73;;;;;;;;;;5033924;28;20231;-83
2023/01/14 15:18:50;;;;;;;13.47;7.87;;;;;;;;;;5036988;28;20217;-78
2023/01/14 15:21:19;;;;;;;14.37;8.80;;;;;;;;;;5032814;28;21029;-82
2023/01/14 15:23:47;;;;;;;17.60;9.47;;;;;;;;;;5042303;28;20175;-81
2023/01/14 15:26:18;;;;;;;17.70;9.30;;;;;;;;;;5041772;28;20287;-79
2023/01/14 15:28:45;;;;;;;15.97;9.53;;;;;;;;;;5040275;28;20666;-80
2023/01/14 15:31:33;;;;;;;16.70;8.47;;;;;;;;;;5038258;28;20282;-80
2023/01/14 15:34:04;;;;;;;16.80;8.30;;;;;;;;;;5050143;28;20231;-83